Time;durP1;ratioP1;P1;durP2;ratioP2;P2;SDS_P1;SDS_P2;PMS_P1;PMS_P2;Temp;Humidity;BMP_temperature;BMP_pressure;BME280_temperature;BME280_humidity;BME280_pressure;Samples;Min_cycle;Max_cycle;Signal;HPM_P1;HPM_P2
2022/11/09 00:01:10;;;;;;;2.25;1.20;;;;;;;13.23;100.00;98093.81;4152546;28;20236;-45
2022/11/09 00:03:12;;;;;;;1.70;1.60;;;;;;;13.20;100.00;98084.22;4130110;28;20232;-45
2022/11/09 00:05:13;;;;;;;1.27;1.17;;;;;;;13.17;100.00;98084.75;4149454;28;20205;-46
2022/11/09 00:07:15;;;;;;;1.30;0.90;;;;;;;13.22;100.00;98068.25;4149981;28;20299;-46
2022/11/09 00:09:17;;;;;;;1.10;0.75;;;;;;;13.10;100.00;98064.97;4151028;28;20201;-46
2022/11/09 00:11:19;;;;;;;1.30;1.20;;;;;;;13.05;100.00;98062.22;4138865;28;20308;-47
2022/11/09 00:13:21;;;;;;;1.95;1.25;;;;;;;13.02;100.00;98057.31;4133010;28;20247;-46
2022/11/09 00:15:23;;;;;;;1.38;0.98;;;;;;;13.07;100.00;98057.31;4136667;28;20235;-47
2022/11/09 00:17:25;;;;;;;1.48;1.23;;;;;;;13.04;100.00;98055.09;4138514;28;20252;-47
2022/11/09 00:19:26;;;;;;;1.58;0.95;;;;;;;13.00;100.00;98053.19;4136471;28;20198;-46
2022/11/09 00:21:28;;;;;;;1.90;1.58;;;;;;;13.02;100.00;98062.81;4146932;28;20228;-46
2022/11/09 00:23:30;;;;;;;1.10;1.00;;;;;;;13.08;100.00;98089.16;4135514;28;20252;-46
2022/11/09 00:25:32;;;;;;;1.75;1.10;;;;;;;13.10;100.00;98097.94;4135421;28;20198;-46
2022/11/09 00:27:33;;;;;;;1.13;1.02;;;;;;;13.04;100.00;98109.22;4139624;28;20213;-46
2022/11/09 00:29:35;;;;;;;1.00;1.00;;;;;;;13.04;100.00;98117.47;4150747;28;20198;-46
2022/11/09 00:31:37;;;;;;;1.50;1.23;;;;;;;12.98;100.00;98127.59;4149058;28;20770;-46
2022/11/09 00:33:39;;;;;;;1.48;1.17;;;;;;;13.02;100.00;98127.88;4148554;28;20213;-45
2022/11/09 00:35:40;;;;;;;1.33;1.00;;;;;;;13.07;100.00;98141.63;4138151;28;20309;-46
2022/11/09 00:37:42;;;;;;;3.28;1.25;;;;;;;12.99;100.00;98143.03;4140708;28;20213;-46
2022/11/09 00:39:44;;;;;;;1.20;1.10;;;;;;;12.95;100.00;98144.66;4137057;28;20240;-46
2022/11/09 00:41:45;;;;;;;2.42;1.73;;;;;;;13.01;100.00;98159.19;4134024;28;20230;-46
2022/11/09 00:43:48;;;;;;;0.90;0.90;;;;;;;13.05;100.00;98154.81;4137884;28;20463;-46
2022/11/09 00:45:49;;;;;;;0.82;0.82;;;;;;;13.02;100.00;98167.19;4134291;28;20648;-46
2022/11/09 00:47:51;;;;;;;0.80;0.80;;;;;;;13.03;100.00;98155.09;4149804;28;20207;-45
2022/11/09 00:49:53;;;;;;;1.00;1.00;;;;;;;13.04;100.00;98159.47;4134858;28;20249;-46
2022/11/09 00:51:55;;;;;;;1.17;0.93;;;;;;;13.07;100.00;98160.84;4137832;28;20253;-47
2022/11/09 00:53:57;;;;;;;1.10;1.00;;;;;;;13.04;100.00;98153.97;4118457;28;20218;-46
2022/11/09 00:56:03;;;;;;;0.80;0.80;;;;;;;13.05;100.00;98155.63;4121631;28;20236;-46
2022/11/09 00:58:04;;;;;;;4.13;1.25;;;;;;;13.08;100.00;98157.84;4135540;28;20210;-45
2022/11/09 01:00:06;;;;;;;0.95;0.95;;;;;;;13.08;100.00;98165.25;4149534;28;20288;-45
2022/11/09 01:02:08;;;;;;;1.15;1.05;;;;;;;13.03;100.00;98155.09;4137905;28;20321;-46
2022/11/09 01:04:10;;;;;;;1.80;1.23;;;;;;;13.01;100.00;98165.53;4138736;28;20292;-47
2022/11/09 01:06:20;;;;;;;1.50;1.40;;;;;;;13.02;100.00;98167.19;4120136;28;20522;-45
2022/11/09 01:08:21;;;;;;;1.30;1.20;;;;;;;12.98;100.00;98160.56;4129365;28;20210;-46
2022/11/09 01:10:23;;;;;;;1.30;1.20;;;;;;;12.98;100.00;98160.56;4151387;28;20204;-46
2022/11/09 01:12:25;;;;;;;0.85;0.85;;;;;;;12.98;100.00;98149.59;4137648;28;20267;-45
2022/11/09 01:14:26;;;;;;;1.10;1.00;;;;;;;12.94;100.00;98159.44;4156208;28;20207;-45
2022/11/09 01:16:28;;;;;;;0.80;0.80;;;;;;;13.00;100.00;98152.91;4140022;28;20243;-45
2022/11/09 01:18:30;;;;;;;2.17;1.05;;;;;;;13.04;100.00;98159.47;4138025;28;20295;-46
2022/11/09 01:20:32;;;;;;;0.88;0.88;;;;;;;13.07;100.00;98156.19;4138079;28;20675;-46
2022/11/09 01:22:33;;;;;;;1.17;1.00;;;;;;;13.00;100.00;98161.13;4136007;28;20332;-45
2022/11/09 01:24:35;;;;;;;1.45;1.05;;;;;;;12.97;100.00;98158.94;4139371;28;20684;-46
2022/11/09 01:26:37;;;;;;;0.80;0.80;;;;;;;13.02;100.00;98150.69;4155376;28;20271;-45
2022/11/09 01:28:39;;;;;;;0.77;0.70;;;;;;;12.97;100.00;98163.59;4134534;28;20281;-45
2022/11/09 01:30:42;;;;;;;1.60;0.80;;;;;;;12.93;100.00;98163.31;4141460;28;20252;-46
2022/11/09 01:32:43;;;;;;;1.70;1.02;;;;;;;12.99;100.00;98151.25;4138583;28;20308;-45
2022/11/09 01:34:45;;;;;;;1.38;0.80;;;;;;;12.95;100.00;98155.63;4139114;28;20217;-45
2022/11/09 01:36:50;;;;;;;0.70;0.70;;;;;;;12.93;100.00;98149.56;4125039;28;20660;-45
2022/11/09 01:38:52;;;;;;;0.88;0.88;;;;;;;12.96;100.00;98146.28;4143260;28;20207;-45
2022/11/09 01:40:54;;;;;;;0.63;0.63;;;;;;;12.93;100.00;98135.84;4153804;28;20259;-46
2022/11/09 01:42:56;;;;;;;0.77;0.77;;;;;;;12.93;100.00;98127.59;4142876;28;20312;-45
2022/11/09 01:45:16;;;;;;;0.80;0.80;;;;;;;12.95;100.00;98127.34;4137819;28;20801;-45
2022/11/09 01:47:24;;;;;;;0.82;0.82;;;;;;;12.86;100.00;98124.31;4137075;28;20356;-45
2022/11/09 01:49:26;;;;;;;1.38;1.27;;;;;;;12.87;100.00;98117.72;4140780;28;20629;-46
2022/11/09 01:51:40;;;;;;;1.08;1.08;;;;;;;12.79;100.00;98107.28;4140522;28;20202;-45
2022/11/09 01:53:45;;;;;;;1.10;1.00;;;;;;;12.77;100.00;98114.13;4125005;28;20603;-46
2022/11/09 01:55:50;;;;;;;1.55;1.05;;;;;;;12.79;100.00;98118.25;4138179;28;20328;-45
2022/11/09 01:58:02;;;;;;;1.02;0.98;;;;;;;12.76;100.00;98107.81;4136380;28;20675;-45
2022/11/09 02:00:07;;;;;;;1.77;0.90;;;;;;;12.79;100.00;98103.69;4137709;28;20333;-45
2022/11/09 02:02:09;;;;;;;1.00;1.00;;;;;;;12.72;100.00;98098.50;4151423;28;20229;-45
2022/11/09 02:04:13;;;;;;;0.80;0.80;;;;;;;12.76;100.00;98090.53;4139186;28;20201;-45
2022/11/09 02:06:17;;;;;;;1.05;0.93;;;;;;;12.72;100.00;98090.25;4141070;28;20309;-45
2022/11/09 02:08:20;;;;;;;0.85;0.85;;;;;;;12.69;100.00;98079.81;4140700;28;20313;-46
2022/11/09 02:10:24;;;;;;;1.38;0.70;;;;;;;12.76;100.00;98074.88;4153590;28;20232;-45
2022/11/09 02:12:32;;;;;;;0.95;0.95;;;;;;;12.77;100.00;98076.50;4129782;28;20221;-46
2022/11/09 02:14:34;;;;;;;0.73;0.73;;;;;;;12.72;100.00;98073.78;4138519;28;20215;-46
2022/11/09 02:16:36;;;;;;;0.60;0.60;;;;;;;12.70;100.00;98075.16;4141068;28;20315;-45
2022/11/09 02:18:42;;;;;;;0.77;0.77;;;;;;;12.68;100.00;98078.16;4141366;28;20733;-46
2022/11/09 02:20:49;;;;;;;1.40;0.88;;;;;;;12.74;100.00;98073.50;4141468;28;20208;-45
2022/11/09 02:22:51;;;;;;;0.60;0.60;;;;;;;12.68;100.00;98072.66;4147651;28;20225;-46
2022/11/09 02:24:52;;;;;;;0.80;0.80;;;;;;;12.67;100.00;98060.06;4133890;28;20206;-46
2022/11/09 02:26:57;;;;;;;0.75;0.75;;;;;;;12.69;100.00;98040.53;4139466;28;20205;-45
2022/11/09 02:29:01;;;;;;;0.73;0.73;;;;;;;12.62;100.00;98029.84;4133346;28;20959;-45
2022/11/09 02:31:03;;;;;;;1.30;1.20;;;;;;;12.71;100.00;98025.44;4137616;28;20252;-46
2022/11/09 02:33:05;;;;;;;0.70;0.70;;;;;;;12.67;100.00;98016.13;4150487;28;20228;-46
2022/11/09 02:35:07;;;;;;;0.90;0.90;;;;;;;12.63;100.00;98020.50;4141353;28;20216;-45
2022/11/09 02:37:09;;;;;;;1.20;1.10;;;;;;;12.63;100.00;98017.75;4123251;28;20236;-45
2022/11/09 02:39:12;;;;;;;0.82;0.82;;;;;;;12.68;100.00;98028.75;4122982;28;20205;-46
2022/11/09 02:41:15;;;;;;;0.50;0.50;;;;;;;12.63;100.00;98030.69;4140756;28;20295;-47
2022/11/09 02:43:17;;;;;;;0.65;0.60;;;;;;;12.60;100.00;98032.06;4137138;28;20326;-45
2022/11/09 02:45:20;;;;;;;0.70;0.70;;;;;;;12.68;100.00;98042.47;4140603;28;20255;-45
2022/11/09 02:47:21;;;;;;;0.70;0.70;;;;;;;12.60;100.00;98040.28;4135234;28;20337;-46
2022/11/09 02:49:23;;;;;;;0.85;0.85;;;;;;;12.58;100.00;98052.63;4136170;28;20272;-46
2022/11/09 02:51:25;;;;;;;0.73;0.73;;;;;;;12.64;100.00;98046.84;4137947;28;20257;-46
2022/11/09 02:53:26;;;;;;;1.40;0.90;;;;;;;12.58;100.00;98045.22;4141253;28;20308;-46
2022/11/09 02:55:28;;;;;;;0.70;0.70;;;;;;;12.66;100.00;98055.66;4140995;28;20297;-45
2022/11/09 02:57:30;;;;;;;0.60;0.60;;;;;;;12.63;100.00;98063.63;4135960;28;20220;-45
2022/11/09 02:59:31;;;;;;;1.30;0.90;;;;;;;12.63;100.00;98061.69;4153295;28;20227;-46
2022/11/09 03:01:33;;;;;;;0.65;0.65;;;;;;;12.62;100.00;98073.75;4151354;28;20209;-46
2022/11/09 03:03:35;;;;;;;0.65;0.65;;;;;;;12.62;100.00;98076.50;4151675;28;20304;-46
2022/11/09 03:05:36;;;;;;;0.60;0.60;;;;;;;12.68;100.00;98078.16;4137518;28;20546;-46
2022/11/09 03:07:38;;;;;;;0.70;0.70;;;;;;;12.67;100.00;98076.53;4136148;28;20244;-45
2022/11/09 03:09:40;;;;;;;0.70;0.70;;;;;;;12.71;100.00;98087.78;4139981;28;20299;-45
2022/11/09 03:11:42;;;;;;;0.70;0.70;;;;;;;12.72;100.00;98084.75;4140897;28;20574;-46
2022/11/09 03:13:43;;;;;;;0.80;0.80;;;;;;;12.72;100.00;98090.25;4140552;28;20284;-46
2022/11/09 03:15:45;;;;;;;0.85;0.85;;;;;;;12.73;100.00;98089.16;4137612;28;20244;-46
2022/11/09 03:17:47;;;;;;;1.05;0.93;;;;;;;12.71;100.00;98098.75;4132696;28;20651;-45
2022/11/09 03:19:48;;;;;;;0.85;0.85;;;;;;;12.66;100.00;98091.34;4150412;28;20304;-45
2022/11/09 03:21:50;;;;;;;0.65;0.65;;;;;;;12.67;100.00;98093.00;4140076;28;20806;-46
2022/11/09 03:23:53;;;;;;;1.08;0.88;;;;;;;12.66;100.00;98091.34;4142546;28;20217;-46
2022/11/09 03:25:54;;;;;;;0.70;0.70;;;;;;;12.63;100.00;98089.13;4135611;28;20297;-45
2022/11/09 03:28:00;;;;;;;0.60;0.60;;;;;;;12.72;100.00;98094.91;4124205;28;20210;-46
2022/11/09 03:30:03;;;;;;;0.70;0.70;;;;;;;12.70;100.00;98099.84;4139021;28;20237;-46
2022/11/09 03:32:05;;;;;;;0.60;0.60;;;;;;;12.69;100.00;98096.28;4134633;28;20221;-45
2022/11/09 03:34:07;;;;;;;0.98;0.98;;;;;;;12.65;100.00;98095.16;4137336;28;20563;-46
2022/11/09 03:36:08;;;;;;;2.30;0.93;;;;;;;12.73;100.00;98108.38;4150673;28;20229;-45
2022/11/09 03:38:11;;;;;;;0.80;0.80;;;;;;;12.65;100.00;98103.41;4135301;28;20229;-45
2022/11/09 03:40:12;;;;;;;0.82;0.80;;;;;;;12.74;100.00;98098.19;4134318;28;20604;-45
2022/11/09 03:42:14;;;;;;;0.60;0.60;;;;;;;12.70;100.00;98097.13;4123514;28;20226;-45
2022/11/09 03:44:15;;;;;;;0.68;0.68;;;;;;;12.71;100.00;98093.25;4141439;28;20293;-46
2022/11/09 03:46:17;;;;;;;0.75;0.75;;;;;;;12.74;100.00;98087.22;4135944;28;20194;-45
2022/11/09 03:48:19;;;;;;;0.60;0.60;;;;;;;12.70;100.00;98088.88;4135028;28;22102;-45
2022/11/09 03:50:20;;;;;;;0.70;0.70;;;;;;;12.68;100.00;98094.63;4139148;28;20891;-46
2022/11/09 03:52:22;;;;;;;0.60;0.60;;;;;;;12.66;100.00;98085.84;4135575;28;20670;-45
2022/11/09 03:54:24;;;;;;;0.75;0.60;;;;;;;12.66;100.00;98088.59;4140065;28;20699;-46
2022/11/09 03:56:25;;;;;;;0.68;0.68;;;;;;;12.68;100.00;98089.16;4149839;28;20232;-45
2022/11/09 03:58:27;;;;;;;0.60;0.60;;;;;;;12.73;100.00;98085.56;4151776;28;20248;-45
2022/11/09 04:00:29;;;;;;;0.95;0.95;;;;;;;12.70;100.00;98086.94;4152351;28;20209;-45
2022/11/09 04:02:31;;;;;;;1.08;1.02;;;;;;;12.70;100.00;98092.44;4134385;28;20291;-46
2022/11/09 04:04:32;;;;;;;0.95;0.95;;;;;;;12.63;100.00;98091.88;4116912;28;20664;-46
2022/11/09 04:06:34;;;;;;;0.90;0.90;;;;;;;12.66;100.00;98096.84;4149636;28;20286;-46
2022/11/09 04:08:36;;;;;;;0.60;0.60;;;;;;;12.72;100.00;98111.38;4151192;28;20264;-46
2022/11/09 04:10:37;;;;;;;1.02;0.80;;;;;;;12.63;100.00;98113.84;4138356;28;20308;-47
2022/11/09 04:12:39;;;;;;;0.70;0.65;;;;;;;12.71;100.00;98109.75;4137779;28;20237;-45
2022/11/09 04:14:41;;;;;;;0.80;0.80;;;;;;;12.67;100.00;98103.13;4136268;28;20536;-45
2022/11/09 04:16:42;;;;;;;0.57;0.57;;;;;;;12.62;100.00;98103.97;4129359;28;20228;-46
2022/11/09 04:18:44;;;;;;;0.70;0.65;;;;;;;12.59;100.00;98099.03;4138044;28;20201;-45
2022/11/09 04:20:46;;;;;;;0.55;0.55;;;;;;;12.60;100.00;98097.94;4149443;28;20201;-45
2022/11/09 04:23:01;;;;;;;0.90;0.85;;;;;;;12.57;100.00;98114.94;4149644;28;20626;-46
2022/11/09 04:25:04;;;;;;;0.80;0.80;;;;;;;12.53;100.00;98105.59;4139554;28;20233;-45
2022/11/09 04:27:06;;;;;;;1.00;0.85;;;;;;;12.52;100.00;98105.88;4139178;28;20303;-45
2022/11/09 04:29:08;;;;;;;0.68;0.68;;;;;;;12.57;100.00;98114.13;4140906;28;20237;-45
2022/11/09 04:31:10;;;;;;;0.70;0.70;;;;;;;12.59;100.00;98121.00;4133128;28;20209;-45
2022/11/09 04:33:12;;;;;;;0.80;0.80;;;;;;;12.62;100.00;98128.66;4137563;28;20764;-45
2022/11/09 04:35:13;;;;;;;0.93;0.90;;;;;;;12.56;100.00;98124.25;4133792;28;20209;-45
2022/11/09 04:37:15;;;;;;;1.05;1.05;;;;;;;12.61;100.00;98126.19;4136235;28;20696;-45
2022/11/09 04:39:17;;;;;;;1.05;0.85;;;;;;;12.57;100.00;98109.44;4132569;28;20636;-45
2022/11/09 04:41:18;;;;;;;1.20;0.68;;;;;;;12.55;100.00;98114.38;4137851;28;20892;-45
2022/11/09 04:43:20;;;;;;;0.95;0.95;;;;;;;12.60;100.00;98100.69;4136415;28;20717;-45
2022/11/09 04:45:22;;;;;;;1.40;1.40;;;;;;;12.57;100.00;98103.94;4132847;28;20405;-45
2022/11/09 04:47:24;;;;;;;1.20;1.08;;;;;;;12.57;100.00;98120.41;4130059;28;20210;-46
2022/11/09 04:49:26;;;;;;;0.93;0.93;;;;;;;12.50;100.00;98108.88;4148984;28;20243;-45
2022/11/09 04:51:28;;;;;;;1.25;0.85;;;;;;;12.47;100.00;98103.94;4138385;28;20263;-45
2022/11/09 04:53:30;;;;;;;2.25;0.80;;;;;;;12.54;100.00;98099.03;4131669;28;20217;-45
2022/11/09 04:55:31;;;;;;;0.85;0.85;;;;;;;12.50;100.00;98097.91;4134673;28;20726;-45
2022/11/09 04:57:33;;;;;;;0.60;0.60;;;;;;;12.50;100.00;98091.59;4133851;28;20325;-45
2022/11/09 04:59:35;;;;;;;0.80;0.80;;;;;;;12.52;100.00;98094.91;4134911;28;20214;-45
2022/11/09 05:01:36;;;;;;;0.80;0.70;;;;;;;12.48;100.00;98094.63;4132056;28;20211;-45
2022/11/09 05:03:39;;;;;;;0.80;0.80;;;;;;;12.49;100.00;98107.22;4135637;28;20268;-45
2022/11/09 05:05:41;;;;;;;1.15;1.05;;;;;;;12.56;100.00;98107.78;4136185;28;20209;-45
2022/11/09 05:07:48;;;;;;;1.30;0.70;;;;;;;12.49;100.00;98101.75;4143263;28;20205;-46
2022/11/09 05:09:50;;;;;;;0.90;0.90;;;;;;;12.49;100.00;98101.75;4132762;28;20206;-45
2022/11/09 05:11:52;;;;;;;1.02;1.02;;;;;;;12.46;100.00;98091.31;4120099;28;20225;-46
2022/11/09 05:13:53;;;;;;;0.70;0.70;;;;;;;12.48;100.00;98085.53;4134273;28;20297;-45
2022/11/09 05:15:55;;;;;;;1.00;0.90;;;;;;;12.49;100.00;98077.03;4135938;28;20697;-47
2022/11/09 05:17:57;;;;;;;1.17;1.10;;;;;;;12.50;100.00;98081.44;4133728;28;20414;-46
2022/11/09 05:19:59;;;;;;;1.25;1.15;;;;;;;12.55;100.00;98078.69;4128474;28;20214;-45
2022/11/09 05:23:57;;;;;;;3.63;1.05;;;;;;;12.54;100.00;98090.78;4125417;28;20233;-46
2022/11/09 05:24:22;;;;;;;1.35;1.30;;;;;;;12.56;100.00;98093.25;4136559;28;20648;-46
2022/11/09 05:26:35;;;;;;;0.90;0.90;;;;;;;12.51;100.00;98107.78;4138068;28;20739;-46
2022/11/09 05:28:37;;;;;;;0.85;0.85;;;;;;;12.56;100.00;98107.00;4134585;28;20672;-45
2022/11/09 05:30:39;;;;;;;1.00;1.00;;;;;;;12.50;100.00;98106.13;4137320;28;20244;-45
2022/11/09 05:32:40;;;;;;;1.00;1.00;;;;;;;12.54;100.00;98104.50;4136125;28;20241;-47
2022/11/09 05:34:42;;;;;;;1.30;0.82;;;;;;;12.59;100.00;98107.25;4134532;28;20669;-46
2022/11/09 05:36:44;;;;;;;0.80;0.80;;;;;;;12.54;100.00;98093.53;4148687;28;20232;-45
2022/11/09 05:38:46;;;;;;;1.55;1.50;;;;;;;12.56;100.00;98099.56;4138102;28;20214;-46
2022/11/09 05:40:48;;;;;;;0.90;0.90;;;;;;;12.55;100.00;98097.91;4139420;28;20233;-45
2022/11/09 05:42:51;;;;;;;0.85;0.85;;;;;;;12.55;100.00;98110.81;4134862;28;20241;-46
2022/11/09 05:44:54;;;;;;;1.35;1.25;;;;;;;12.55;100.00;98103.41;4143913;28;20256;-46
2022/11/09 05:46:56;;;;;;;0.80;0.80;;;;;;;12.59;100.00;98107.25;4147482;28;20259;-45
2022/11/09 05:48:57;;;;;;;1.23;1.13;;;;;;;12.57;100.00;98095.72;4146829;28;20704;-45
2022/11/09 05:51:01;;;;;;;0.80;0.80;;;;;;;12.54;100.00;98096.28;4142356;28;20736;-45
2022/11/09 05:53:03;;;;;;;0.70;0.70;;;;;;;12.56;100.00;98088.59;4132807;28;20444;-45
2022/11/09 05:55:05;;;;;;;1.67;1.10;;;;;;;12.60;100.00;98081.47;4137789;28;20742;-46
2022/11/09 05:57:07;;;;;;;0.75;0.60;;;;;;;12.57;100.00;98082.00;4127155;28;20737;-46
2022/11/09 05:59:11;;;;;;;0.85;0.73;;;;;;;12.53;100.00;98080.91;4143394;28;20275;-45
2022/11/09 06:01:15;;;;;;;0.88;0.82;;;;;;;12.48;100.00;98072.66;4137980;28;21023;-46
2022/11/09 06:03:26;;;;;;;0.82;0.82;;;;;;;12.52;100.00;98065.53;4136221;28;20214;-45
2022/11/09 06:05:28;;;;;;;1.17;0.70;;;;;;;12.48;100.00;98066.34;4137814;28;20255;-46
2022/11/09 06:07:29;;;;;;;0.80;0.80;;;;;;;12.47;100.00;98054.56;4136000;28;20294;-45
2022/11/09 06:09:32;;;;;;;1.02;1.02;;;;;;;12.46;100.00;98061.13;4150915;28;20299;-45
2022/11/09 06:11:33;;;;;;;0.70;0.70;;;;;;;12.46;100.00;98052.91;4148891;28;20251;-46
2022/11/09 06:13:36;;;;;;;0.77;0.77;;;;;;;12.45;100.00;98048.50;4119162;28;20214;-46
2022/11/09 06:15:37;;;;;;;0.88;0.70;;;;;;;12.46;100.00;98035.59;4144660;28;20212;-46
2022/11/09 06:17:39;;;;;;;0.47;0.47;;;;;;;12.43;100.00;98034.22;4135777;28;20681;-45
2022/11/09 06:19:41;;;;;;;0.63;0.63;;;;;;;12.45;100.00;98045.75;4136153;28;20217;-46
2022/11/09 06:21:42;;;;;;;0.70;0.70;;;;;;;12.45;100.00;98056.72;4145479;28;20220;-48
2022/11/09 06:23:44;;;;;;;0.60;0.60;;;;;;;12.48;100.00;98056.19;4134765;28;20206;-46
2022/11/09 06:25:47;;;;;;;0.63;0.63;;;;;;;12.48;100.00;98075.41;4150410;28;20228;-47
2022/11/09 06:27:54;;;;;;;0.80;0.80;;;;;;;12.42;100.00;98083.88;4124477;28;20202;-45
2022/11/09 06:29:59;;;;;;;0.98;0.70;;;;;;;12.44;100.00;98085.25;4130202;28;20202;-46
2022/11/09 06:32:01;;;;;;;1.23;0.80;;;;;;;12.39;100.00;98090.78;4120964;28;20234;-46
2022/11/09 06:34:03;;;;;;;0.82;0.70;;;;;;;12.44;100.00;98098.97;4112952;28;20720;-46
2022/11/09 06:36:06;;;;;;;0.70;0.70;;;;;;;12.39;100.00;98101.75;4135584;28;20637;-45
2022/11/09 06:38:10;;;;;;;0.60;0.60;;;;;;;12.37;100.00;98112.16;4136007;28;20720;-45
2022/11/09 06:40:12;;;;;;;0.70;0.70;;;;;;;12.38;100.00;98111.03;4136326;28;20247;-47
2022/11/09 06:42:14;;;;;;;0.70;0.70;;;;;;;12.32;100.00;98114.91;4136790;28;20251;-46
2022/11/09 06:44:19;;;;;;;0.82;0.82;;;;;;;12.34;100.00;98115.44;4127512;28;20226;-47
2022/11/09 06:46:21;;;;;;;0.68;0.68;;;;;;;12.35;100.00;98113.50;4137786;28;20213;-46
2022/11/09 06:48:23;;;;;;;0.80;0.80;;;;;;;12.41;100.00;98116.00;4132275;28;20808;-46
2022/11/09 06:50:27;;;;;;;0.60;0.60;;;;;;;12.35;100.00;98111.59;4139874;28;20198;-46
2022/11/09 06:52:29;;;;;;;0.55;0.55;;;;;;;12.37;100.00;98120.38;4139013;28;20229;-46
2022/11/09 06:54:31;;;;;;;6.90;0.95;;;;;;;12.34;100.00;98123.69;4135762;28;20225;-46
2022/11/09 06:56:33;;;;;;;0.70;0.70;;;;;;;12.36;100.00;98121.47;4138405;28;20220;-46
2022/11/09 06:58:39;;;;;;;0.75;0.75;;;;;;;12.41;100.00;98126.97;4122731;28;20233;-46
2022/11/09 07:00:47;;;;;;;3.97;0.90;;;;;;;12.35;100.00;98122.56;4136523;28;20206;-48
2022/11/09 07:02:54;;;;;;;0.60;0.60;;;;;;;12.35;100.00;98127.22;4133468;28;20229;-48
2022/11/09 07:04:56;;;;;;;0.60;0.60;;;;;;;12.31;100.00;98132.44;4137124;28;20209;-46
2022/11/09 07:06:58;;;;;;;0.75;0.73;;;;;;;12.28;100.00;98143.13;4136426;28;20304;-46
2022/11/09 07:09:00;;;;;;;0.73;0.68;;;;;;;12.32;100.00;98145.09;4150488;28;20900;-47
2022/11/09 07:11:10;;;;;;;0.60;0.60;;;;;;;12.27;100.00;98138.75;4126902;28;20490;-45
2022/11/09 07:13:11;;;;;;;0.60;0.60;;;;;;;12.29;100.00;98153.00;4140549;28;20229;-46
2022/11/09 07:15:13;;;;;;;0.65;0.60;;;;;;;12.36;100.00;98161.81;4135374;28;20236;-47
2022/11/09 07:17:15;;;;;;;2.92;0.90;;;;;;;12.35;100.00;98163.72;4134681;28;20257;-45
2022/11/09 07:19:17;;;;;;;0.80;0.80;;;;;;;12.31;100.00;98165.34;4139409;28;20213;-46
2022/11/09 07:21:28;;;;;;;0.45;0.45;;;;;;;12.33;100.00;98170.59;4137625;28;20216;-46
2022/11/09 07:23:35;;;;;;;0.60;0.60;;;;;;;12.28;100.00;98176.88;4136180;28;20206;-46
2022/11/09 07:25:43;;;;;;;0.60;0.60;;;;;;;12.31;100.00;98181.81;4137395;28;20224;-46
2022/11/09 07:27:45;;;;;;;0.88;0.88;;;;;;;12.26;100.00;98189.22;4131141;28;20300;-45
2022/11/09 07:29:47;;;;;;;0.50;0.50;;;;;;;12.30;100.00;98191.16;4145280;28;20217;-46
2022/11/09 07:31:49;;;;;;;0.77;0.77;;;;;;;12.32;100.00;98194.47;4150211;28;20610;-45
2022/11/09 07:33:50;;;;;;;0.80;0.80;;;;;;;12.28;100.00;98192.50;4134570;28;20865;-46
2022/11/09 07:35:52;;;;;;;1.02;0.70;;;;;;;12.27;100.00;98197.19;4135207;28;20217;-46
2022/11/09 07:37:58;;;;;;;0.60;0.60;;;;;;;12.31;100.00;98198.28;4139101;28;20324;-46
2022/11/09 07:40:00;;;;;;;0.60;0.60;;;;;;;12.29;100.00;98192.25;4137036;28;20212;-46
2022/11/09 07:42:05;;;;;;;1.23;1.23;;;;;;;12.29;100.00;98195.00;4138445;28;20657;-45
2022/11/09 07:44:19;;;;;;;0.55;0.55;;;;;;;12.27;100.00;98191.69;4152018;28;20295;-46
2022/11/09 07:46:26;;;;;;;0.70;0.70;;;;;;;12.28;100.00;98196.09;4148235;28;20215;-46
2022/11/09 07:48:28;;;;;;;0.70;0.70;;;;;;;12.29;100.00;98199.63;4137871;28;20210;-46
2022/11/09 07:50:31;;;;;;;0.60;0.60;;;;;;;12.31;100.00;98212.00;4152149;28;20237;-46
2022/11/09 07:52:33;;;;;;;0.95;0.95;;;;;;;12.29;100.00;98216.94;4137154;28;20283;-46
2022/11/09 07:54:35;;;;;;;0.75;0.70;;;;;;;12.31;100.00;98224.91;4136857;28;20225;-46
2022/11/09 07:56:37;;;;;;;0.63;0.63;;;;;;;12.31;100.00;98225.72;4153217;28;20220;-46
2022/11/09 07:58:39;;;;;;;0.70;0.70;;;;;;;12.30;100.00;98223.25;4151839;28;20354;-47
2022/11/09 08:00:52;;;;;;;0.70;0.70;;;;;;;12.32;100.00;98227.41;4141360;28;20216;-45
2022/11/09 08:02:55;;;;;;;1.25;0.63;;;;;;;12.39;100.00;98227.13;4140041;28;20236;-46
2022/11/09 08:04:59;;;;;;;0.65;0.60;;;;;;;12.40;100.00;98237.00;4136499;28;20248;-45
2022/11/09 08:07:01;;;;;;;0.77;0.77;;;;;;;12.38;100.00;98236.47;4139712;28;20213;-47
2022/11/09 08:09:03;;;;;;;0.55;0.55;;;;;;;12.41;100.00;98242.25;4130875;28;20224;-47
2022/11/09 08:11:12;;;;;;;0.70;0.70;;;;;;;12.38;100.00;98239.22;4134287;28;20691;-46
2022/11/09 08:13:33;;;;;;;0.80;0.80;;;;;;;12.39;100.00;98233.47;4132186;28;20335;-47
2022/11/09 08:15:46;;;;;;;1.45;1.15;;;;;;;12.37;100.00;98234.81;4135305;28;20281;-46
2022/11/09 08:17:55;;;;;;;0.63;0.63;;;;;;;12.37;100.00;98240.31;4134276;28;20249;-46
2022/11/09 08:20:15;;;;;;;0.50;0.50;;;;;;;12.41;100.00;98236.75;4133021;28;20656;-46
2022/11/09 08:22:30;;;;;;;1.33;1.00;;;;;;;12.44;100.00;98241.69;4137715;28;20259;-46
2022/11/09 08:24:41;;;;;;;0.60;0.60;;;;;;;12.44;100.00;98241.69;4135246;28;20202;-47
2022/11/09 08:26:51;;;;;;;0.70;0.70;;;;;;;12.53;100.00;98234.59;4133916;28;20676;-46
2022/11/09 08:28:59;;;;;;;0.57;0.57;;;;;;;12.50;100.00;98232.38;4133451;28;20337;-46
2022/11/09 08:31:04;;;;;;;0.70;0.70;;;;;;;12.56;100.00;98230.50;4136682;28;20244;-47
2022/11/09 08:33:10;;;;;;;0.70;0.70;;;;;;;12.57;100.00;98230.22;4140369;28;20229;-46
2022/11/09 08:35:35;;;;;;;0.57;0.57;;;;;;;12.59;100.00;98227.19;4136270;28;20214;-45
2022/11/09 08:37:57;;;;;;;0.70;0.70;;;;;;;12.56;100.00;98231.31;4132807;28;20214;-46
2022/11/09 08:40:02;;;;;;;0.65;0.65;;;;;;;12.60;100.00;98228.84;4151343;28;21942;-47
2022/11/09 08:42:07;;;;;;;0.60;0.60;;;;;;;12.60;100.00;98243.41;4136641;28;20804;-47
2022/11/09 08:44:09;;;;;;;0.70;0.70;;;;;;;12.76;100.00;98239.59;4125695;28;20213;-46
2022/11/09 08:46:18;;;;;;;0.52;0.50;;;;;;;12.99;100.00;98247.41;4142083;28;20197;-46
2022/11/09 08:48:20;;;;;;;0.68;0.68;;;;;;;13.22;100.00;98251.53;4135110;28;20209;-46
2022/11/09 08:50:22;;;;;;;1.10;1.00;;;;;;;13.30;100.00;98251.00;4138806;28;20209;-46
2022/11/09 08:52:24;;;;;;;0.80;0.80;;;;;;;13.26;100.00;98245.22;4138009;28;20703;-46
2022/11/09 08:54:30;;;;;;;0.80;0.80;;;;;;;13.27;100.00;98257.03;4135096;28;20702;-46
2022/11/09 08:56:45;;;;;;;1.48;0.60;;;;;;;13.31;100.00;98258.94;4138464;28;20272;-46
2022/11/09 08:58:47;;;;;;;0.60;0.60;;;;;;;13.38;100.00;98254.00;4137011;28;20790;-46
2022/11/09 09:00:51;;;;;;;0.70;0.70;;;;;;;13.41;100.00;98261.72;4137532;28;20213;-47
2022/11/09 09:03:06;;;;;;;0.80;0.63;;;;;;;13.45;100.00;98260.09;4138412;28;20224;-46
2022/11/09 09:05:07;;;;;;;0.98;0.95;;;;;;;13.39;100.00;98250.19;4139463;28;20248;-47
2022/11/09 09:07:10;;;;;;;1.70;0.80;;;;;;;13.27;100.00;98257.88;4137750;28;20205;-46
2022/11/09 09:09:25;;;;;;;0.70;0.70;;;;;;;13.20;100.00;98257.31;4135443;28;20197;-47
2022/11/09 09:11:42;;;;;;;0.65;0.65;;;;;;;13.24;100.00;98257.59;4136184;28;20194;-45
2022/11/09 09:13:52;;;;;;;0.50;0.50;;;;;;;13.14;100.00;98252.91;4137322;28;20296;-46
2022/11/09 09:16:24;;;;;;;0.55;0.55;;;;;;;13.10;100.00;98257.28;4137024;28;20202;-48
2022/11/09 09:18:31;;;;;;;0.70;0.70;;;;;;;13.13;100.00;98254.00;4141401;28;20251;-46
2022/11/09 09:20:39;;;;;;;0.70;0.70;;;;;;;13.17;100.00;98257.84;4138335;28;20214;-45
2022/11/09 09:22:43;;;;;;;0.70;0.70;;;;;;;13.13;100.00;98251.25;4139453;28;20308;-46
2022/11/09 09:24:45;;;;;;;1.35;0.75;;;;;;;13.06;100.00;98256.19;4135487;28;20210;-46
2022/11/09 09:26:47;;;;;;;0.60;0.60;;;;;;;13.08;100.00;98262.22;4116648;28;20700;-46
2022/11/09 09:28:50;;;;;;;1.95;0.70;;;;;;;13.03;100.00;98256.72;4132447;28;20212;-45
2022/11/09 09:30:52;;;;;;;1.23;1.05;;;;;;;13.08;100.00;98270.47;4132386;28;20304;-46
2022/11/09 09:33:00;;;;;;;0.55;0.55;;;;;;;13.04;100.00;98266.59;4135022;28;20232;-46
2022/11/09 09:35:01;;;;;;;1.05;0.65;;;;;;;13.10;100.00;98268.28;4131814;28;20247;-46